Time;durP1;ratioP1;P1;durP2;ratioP2;P2;SDS_P1;SDS_P2;PMS_P1;PMS_P2;Temp;Humidity;BMP_temperature;BMP_pressure;BME280_temperature;BME280_humidity;BME280_pressure;Samples;Min_cycle;Max_cycle;Signal;HPM_P1;HPM_P2
2022/07/26 00:01:38;;;;;;;8.63;7.93;;;;;;;21.20;67.77;96987.34;6188672;28;20243;-86
2022/07/26 00:04:41;;;;;;;8.13;7.43;;;;;;;21.36;67.39;96986.94;6193203;28;20236;-86
2022/07/26 00:07:44;;;;;;;7.90;7.10;;;;;;;21.34;67.47;96981.78;6193674;28;20239;-85
2022/07/26 00:10:48;;;;;;;7.70;7.10;;;;;;;21.26;67.53;96983.84;6188401;28;20299;-85
2022/07/26 00:13:50;;;;;;;7.47;6.87;;;;;;;21.24;67.52;96983.22;6188595;28;20735;-85
2022/07/26 00:16:53;;;;;;;8.00;7.30;;;;;;;21.21;67.48;96995.19;6188944;28;20216;-86
2022/07/26 00:19:55;;;;;;;8.00;7.30;;;;;;;21.22;67.70;96986.13;6170993;28;20560;-86
2022/07/26 00:22:57;;;;;;;7.37;6.77;;;;;;;21.35;67.74;96982.59;6204810;28;20604;-85
2022/07/26 00:26:18;;;;;;;7.63;6.80;;;;;;;21.45;67.08;96985.69;6206849;28;20236;-85
2022/07/26 00:29:20;;;;;;;7.77;7.07;;;;;;;21.37;67.25;96983.19;6211927;28;20235;-85
2022/07/26 00:32:22;;;;;;;7.03;6.43;;;;;;;21.30;67.57;96977.84;6187812;28;20235;-84
2022/07/26 00:35:24;;;;;;;6.90;6.30;;;;;;;21.24;67.69;96981.38;6203389;28;20696;-85
2022/07/26 00:38:26;;;;;;;7.70;7.10;;;;;;;21.21;67.83;96971.03;6211754;28;20894;-86
2022/07/26 00:41:28;;;;;;;8.30;7.60;;;;;;;21.21;67.57;96979.09;6212112;28;20258;-85
2022/07/26 00:44:42;;;;;;;7.90;7.27;;;;;;;21.29;67.44;96981.56;6196532;28;20242;-85
2022/07/26 00:47:45;;;;;;;7.93;7.23;;;;;;;21.28;67.21;96979.91;6228687;28;20232;-85
2022/07/26 00:50:48;;;;;;;7.60;7.00;;;;;;;21.25;67.39;97006.34;6212164;28;20234;-86
2022/07/26 00:53:50;;;;;;;8.67;7.87;;;;;;;21.23;67.58;97164.91;6211760;28;20239;-86
2022/07/26 00:56:53;;;;;;;12.53;8.10;;;;;;;22.48;61.20;97112.19;6194723;28;20334;-86
2022/07/26 00:59:56;;;;;;;8.97;7.27;;;;;;;23.22;59.17;97147.50;6211451;28;20282;-86
2022/07/26 01:02:59;;;;;;;10.53;7.10;;;;;;;23.80;56.95;97166.19;6211047;28;20754;-86
2022/07/26 01:06:01;;;;;;;12.53;6.90;;;;;;;23.98;56.25;97174.34;6196377;28;20234;-88
2022/07/26 01:09:04;;;;;;;12.00;5.83;;;;;;;24.05;55.55;97190.47;6228062;28;20247;-88
2022/07/26 01:12:07;;;;;;;9.70;5.60;;;;;;;24.05;54.44;97206.66;6207743;28;20287;-88
2022/07/26 01:15:12;;;;;;;8.33;4.77;;;;;;;24.00;54.78;97191.13;6195280;28;20718;-87
2022/07/26 01:18:15;;;;;;;8.37;5.30;;;;;;;23.79;55.84;97195.03;6210855;28;20664;-88
2022/07/26 01:21:17;;;;;;;5.93;4.80;;;;;;;23.64;56.97;97229.53;6211922;28;20560;-88
2022/07/26 01:24:19;;;;;;;7.90;4.80;;;;;;;23.42;59.07;97218.22;6212565;28;20227;-88
2022/07/26 01:27:21;;;;;;;7.30;5.33;;;;;;;23.18;60.76;97197.41;6215419;28;20309;-88
2022/07/26 01:30:24;;;;;;;6.67;4.97;;;;;;;22.93;63.24;97234.19;6215890;28;20227;-88
2022/07/26 01:33:26;;;;;;;8.27;5.60;;;;;;;22.65;64.60;97219.13;6193408;28;20228;-88
2022/07/26 01:36:29;;;;;;;10.07;5.70;;;;;;;22.47;65.59;97224.31;6213891;28;20348;-88
2022/07/26 01:39:31;;;;;;;7.10;5.37;;;;;;;22.34;66.63;97205.53;6215146;28;20622;-88
2022/07/26 01:42:33;;;;;;;8.73;5.27;;;;;;;22.29;67.30;97227.66;6215985;28;20298;-88
2022/07/26 01:45:35;;;;;;;7.57;4.70;;;;;;;22.23;67.90;97212.34;6232249;28;20239;-87
2022/07/26 01:48:37;;;;;;;7.60;5.67;;;;;;;22.11;68.48;97222.06;6198637;28;20318;-88
2022/07/26 01:51:39;;;;;;;5.13;4.63;;;;;;;21.94;68.77;97224.31;6216251;28;20894;-89
2022/07/26 01:54:41;;;;;;;9.30;4.23;;;;;;;21.87;69.09;97190.41;6214832;28;20228;-88
2022/07/26 01:57:44;;;;;;;7.93;4.63;;;;;;;21.93;68.01;97195.78;6236730;28;20239;-88
2022/07/26 02:00:47;;;;;;;4.77;3.93;;;;;;;21.90;67.25;97185.44;6218052;28;20228;-86
2022/07/26 02:03:49;;;;;;;4.73;4.07;;;;;;;21.96;67.52;97200.72;6215228;28;20303;-87
2022/07/26 08:38:56;;;;;;;2.10;1.90;;;;;;;19.86;80.92;97436.28;7542840;22;1377097;-67
2022/07/26 08:41:58;;;;;;;2.17;1.97;;;;;;;19.89;80.95;97443.94;7623537;23;20176;-68
2022/07/26 08:45:00;;;;;;;2.33;2.13;;;;;;;19.88;80.33;97440.41;7555770;23;20216;-67
2022/07/26 08:48:02;;;;;;;2.17;2.07;;;;;;;19.81;79.70;97439.50;7550297;23;20657;-67
2022/07/26 08:51:23;;;;;;;3.10;2.10;;;;;;;19.85;79.44;97442.66;7553152;23;20201;-67
2022/07/26 08:54:26;;;;;;;3.13;2.63;;;;;;;19.89;79.98;97438.56;7553472;23;20205;-68
2022/07/26 08:57:28;;;;;;;2.37;2.27;;;;;;;19.87;79.50;97454.81;7552056;23;20635;-67
2022/07/26 09:00:31;;;;;;;2.40;2.20;;;;;;;19.94;78.60;97449.56;7551046;23;20661;-67
2022/07/26 09:03:36;;;;;;;4.23;2.53;;;;;;;19.99;79.08;97449.00;7551821;23;20210;-67
2022/07/26 09:06:38;;;;;;;4.17;2.30;;;;;;;19.97;77.99;97441.13;7551732;23;20217;-67
2022/07/26 09:10:11;;;;;;;2.23;2.00;;;;;;;19.98;77.28;97437.44;7551816;23;20213;-68
2022/07/26 09:13:15;;;;;;;3.10;2.17;;;;;;;20.07;77.25;97452.38;7533735;23;20214;-67
2022/07/26 09:16:17;;;;;;;2.60;2.40;;;;;;;20.13;76.67;97456.19;7551061;23;20213;-68
2022/07/26 09:19:23;;;;;;;2.63;2.00;;;;;;;20.06;76.06;97471.34;7574737;23;20209;-67
2022/07/26 09:22:25;;;;;;;2.03;1.90;;;;;;;20.13;75.71;97466.91;7553426;23;20547;-66
2022/07/26 09:25:30;;;;;;;2.07;1.97;;;;;;;20.20;77.22;97465.94;7552041;23;20550;-67
2022/07/26 09:28:32;;;;;;;2.50;2.30;;;;;;;20.23;76.97;97462.91;7549991;23;20241;-68
2022/07/26 09:31:38;;;;;;;3.67;2.43;;;;;;;20.27;76.11;97468.69;7545437;23;20272;-68
2022/07/26 09:34:40;;;;;;;4.73;2.30;;;;;;;20.34;75.05;97466.09;7541833;23;20601;-68
2022/07/26 09:37:53;;;;;;;2.90;2.60;;;;;;;20.48;75.30;97463.38;7558883;23;20547;-68
2022/07/26 09:40:55;;;;;;;2.80;2.50;;;;;;;20.55;73.90;97461.63;7578646;23;20284;-66
2022/07/26 09:44:00;;;;;;;2.50;2.27;;;;;;;20.64;73.11;97467.69;7553071;23;20212;-69
2022/07/26 09:47:02;;;;;;;2.83;1.80;;;;;;;20.83;72.80;97456.31;7553542;23;20217;-67
2022/07/26 09:50:20;;;;;;;2.57;2.37;;;;;;;21.02;72.82;97456.66;7581529;23;20236;-68
2022/07/26 09:53:22;;;;;;;2.10;2.00;;;;;;;21.22;71.88;97457.69;7579702;23;20277;-68
2022/07/26 09:56:40;;;;;;;2.63;2.43;;;;;;;21.48;71.76;97460.53;7579411;23;20213;-68
2022/07/26 09:59:43;;;;;;;3.07;2.33;;;;;;;21.64;70.83;97468.28;7553169;23;20630;-68
2022/07/26 10:02:45;;;;;;;2.43;2.23;;;;;;;21.77;71.79;97461.31;7578283;23;20216;-68
2022/07/26 10:05:48;;;;;;;3.53;2.20;;;;;;;21.92;72.66;97465.53;7578573;23;20692;-68
2022/07/26 10:08:50;;;;;;;2.90;2.43;;;;;;;22.03;71.26;97467.69;7578577;23;20260;-68
2022/07/26 10:12:01;;;;;;;2.43;2.23;;;;;;;22.20;69.57;97465.47;7555781;23;20209;-68
2022/07/26 10:15:03;;;;;;;2.33;2.13;;;;;;;22.40;68.35;97474.44;7553910;23;20680;-68
2022/07/26 10:18:08;;;;;;;3.20;2.57;;;;;;;22.63;68.71;97465.16;7577638;23;20676;-69
2022/07/26 10:21:22;;;;;;;3.03;2.73;;;;;;;22.79;67.41;97462.09;7578973;23;20500;-67
2022/07/26 10:24:25;;;;;;;2.43;2.23;;;;;;;22.99;68.17;97462.13;7578822;23;20209;-67
2022/07/26 10:27:38;;;;;;;3.10;2.80;;;;;;;23.23;66.41;97464.19;7554627;23;20649;-68
2022/07/26 10:30:40;;;;;;;5.93;3.03;;;;;;;23.48;66.57;97475.97;7578614;23;20205;-68
2022/07/26 10:33:47;;;;;;;2.90;2.23;;;;;;;23.75;65.90;97481.34;7578636;23;20577;-67
2022/07/26 10:36:56;;;;;;;2.50;2.30;;;;;;;23.94;65.25;97480.47;7553756;23;20221;-67
2022/07/26 10:40:21;;;;;;;2.57;2.37;;;;;;;24.20;65.27;97476.84;7577465;23;20220;-67
2022/07/26 10:43:23;;;;;;;2.60;2.40;;;;;;;24.39;64.25;97481.34;7578874;23;20299;-67
2022/07/26 10:47:05;;;;;;;2.73;2.53;;;;;;;24.45;63.15;97483.19;7558089;23;20213;-67
2022/07/26 10:50:07;;;;;;;4.63;3.40;;;;;;;24.43;62.46;97471.78;7578539;23;20564;-67
2022/07/26 10:53:17;;;;;;;3.83;3.30;;;;;;;24.61;62.84;97471.03;7578981;23;20217;-67
2022/07/26 10:56:19;;;;;;;3.27;2.90;;;;;;;24.94;62.64;97458.19;7577314;23;20280;-67
2022/07/26 10:59:31;;;;;;;3.70;3.30;;;;;;;25.27;60.69;97465.16;7580048;23;20652;-68
2022/07/26 11:02:56;;;;;;;3.50;3.20;;;;;;;25.59;58.58;97442.41;7553173;23;20229;-68
2022/07/26 11:05:58;;;;;;;3.90;3.05;;;;;;;25.89;59.50;97453.34;7578734;23;20677;-68
2022/07/26 11:09:09;;;;;;;3.53;3.22;;;;;;;25.93;59.38;97464.53;7579189;23;20669;-69
2022/07/26 11:12:18;;;;;;;3.13;2.88;;;;;;;25.80;59.11;97456.56;7578419;23;20328;-67
2022/07/26 11:15:20;;;;;;;5.63;3.70;;;;;;;25.50;58.64;97453.75;7579529;23;20485;-69
2022/07/26 11:18:27;;;;;;;4.15;3.85;;;;;;;25.38;57.82;97445.53;7577249;23;20671;-67
2022/07/26 11:21:29;;;;;;;4.80;3.83;;;;;;;25.40;57.70;97456.94;7579927;23;20599;-67
2022/07/26 11:24:39;;;;;;;3.72;3.38;;;;;;;25.63;57.28;97440.97;7577528;23;20212;-68
2022/07/26 11:28:01;;;;;;;3.45;3.20;;;;;;;25.97;56.58;97442.22;7578584;23;20213;-69
2022/07/26 11:31:07;;;;;;;4.13;3.72;;;;;;;26.07;56.20;97442.50;7552026;23;20232;-68
2022/07/26 11:34:20;;;;;;;6.55;3.95;;;;;;;26.24;56.55;97437.31;7532225;23;20220;-68
2022/07/26 11:37:22;;;;;;;4.00;3.38;;;;;;;26.39;55.65;97440.47;7583628;23;20217;-68
2022/07/26 11:40:44;;;;;;;4.10;3.03;;;;;;;26.46;54.94;97418.72;7614320;23;20675;-68
2022/07/26 11:43:48;;;;;;;3.17;2.88;;;;;;;26.39;54.65;97426.09;7589940;23;20738;-68
2022/07/26 11:46:51;;;;;;;5.40;3.65;;;;;;;26.39;53.33;97426.94;7614951;23;20215;-68
2022/07/26 11:49:54;;;;;;;5.30;2.97;;;;;;;26.50;53.16;97427.19;7614595;23;20679;-68
2022/07/26 11:53:20;;;;;;;3.05;2.63;;;;;;;26.55;53.45;97428.19;7612403;23;20209;-69
2022/07/26 11:56:23;;;;;;;3.33;3.03;;;;;;;26.54;53.51;97415.69;7590869;23;20294;-68
2022/07/26 11:59:27;;;;;;;5.50;3.67;;;;;;;26.66;54.14;97421.94;7588319;23;20213;-68
2022/07/26 12:02:30;;;;;;;3.58;3.28;;;;;;;26.71;54.00;97415.84;7588479;23;20745;-68
2022/07/26 12:05:32;;;;;;;4.18;3.05;;;;;;;26.93;52.30;97411.56;7615689;23;20212;-68
2022/07/26 12:08:49;;;;;;;4.72;3.33;;;;;;;27.97;50.64;97409.88;7588753;23;20259;-69
2022/07/26 12:11:57;;;;;;;3.42;3.15;;;;;;;28.83;48.52;97397.16;7565019;23;20215;-69
2022/07/26 12:15:06;;;;;;;3.35;3.08;;;;;;;29.67;46.24;97387.00;7613682;23;20212;-70
2022/07/26 12:18:08;;;;;;;3.45;2.97;;;;;;;29.77;46.06;97406.19;7614471;23;20220;-72
2022/07/26 12:21:11;;;;;;;3.58;3.13;;;;;;;29.76;43.63;97407.25;7614501;23;20204;-71
2022/07/26 12:24:43;;;;;;;2.90;2.70;;;;;;;29.83;42.76;97401.66;7616149;23;20555;-72
2022/07/26 12:27:46;;;;;;;3.13;2.83;;;;;;;30.26;42.74;97409.00;7615307;23;20204;-71
2022/07/26 12:30:48;;;;;;;3.80;2.90;;;;;;;30.69;41.65;97416.28;7564782;23;20667;-73
2022/07/26 12:33:50;;;;;;;3.42;2.97;;;;;;;30.64;40.42;97408.91;7587909;23;20698;-69
2022/07/26 12:36:52;;;;;;;5.13;2.80;;;;;;;30.33;40.69;97421.34;7587123;23;20640;-69
2022/07/26 12:40:10;;;;;;;2.85;2.60;;;;;;;29.54;42.23;97420.88;7588452;23;20671;-66
2022/07/26 12:43:12;;;;;;;4.28;2.70;;;;;;;28.95;43.88;97414.19;7614684;23;20216;-67
2022/07/26 12:46:14;;;;;;;4.13;3.17;;;;;;;28.34;45.36;97415.81;7613525;23;20282;-66
2022/07/26 12:49:16;;;;;;;3.53;3.22;;;;;;;27.34;47.32;97421.50;7564554;23;20204;-69
2022/07/26 12:52:20;;;;;;;4.32;3.05;;;;;;;26.86;48.15;97429.75;7613806;23;20214;-66
2022/07/26 12:55:22;;;;;;;3.20;2.90;;;;;;;26.36;50.13;97446.31;7614144;23;20208;-69
2022/07/26 12:58:24;;;;;;;5.47;3.58;;;;;;;25.61;53.21;97472.78;7614548;23;20223;-66
2022/07/26 13:01:27;;;;;;;17.65;8.93;;;;;;;24.27;57.04;97527.03;7612831;23;20335;-67
2022/07/26 13:04:30;;;;;;;13.63;12.18;;;;;;;23.45;60.87;97538.38;7615624;23;20304;-67
2022/07/26 13:07:32;;;;;;;19.65;15.00;;;;;;;22.65;65.09;97546.50;7614832;23;20212;-66
2022/07/26 13:10:34;;;;;;;18.75;15.55;;;;;;;21.70;69.61;97528.44;7616692;23;20516;-67
2022/07/26 13:13:37;;;;;;;19.37;15.70;;;;;;;21.19;72.70;97526.00;7616105;23;20296;-67
2022/07/26 13:16:39;;;;;;;17.13;15.43;;;;;;;21.00;74.10;97519.41;7616054;23;20212;-68
2022/07/26 13:19:41;;;;;;;15.97;14.37;;;;;;;20.87;74.91;97526.47;7615967;23;20216;-67
2022/07/26 13:22:43;;;;;;;15.77;14.17;;;;;;;20.54;76.51;97524.31;7619279;23;20208;-68
2022/07/26 13:25:45;;;;;;;15.27;13.57;;;;;;;20.48;76.38;97526.91;7616254;23;20216;-67
2022/07/26 13:28:47;;;;;;;12.60;11.40;;;;;;;20.59;76.00;97513.84;7615596;23;20263;-67
2022/07/26 13:31:50;;;;;;;13.67;12.37;;;;;;;20.63;76.49;97527.69;7591242;23;20569;-68
2022/07/26 13:34:52;;;;;;;12.30;11.10;;;;;;;20.70;75.94;97543.84;7590397;23;20298;-67
2022/07/26 13:37:54;;;;;;;11.30;10.30;;;;;;;20.85;75.72;97537.44;7616515;23;20220;-68
2022/07/26 13:40:56;;;;;;;10.00;9.00;;;;;;;20.99;75.17;97549.09;7612897;23;20220;-64
2022/07/26 13:43:59;;;;;;;10.63;9.00;;;;;;;21.00;75.00;97546.22;7614996;23;20207;-67
2022/07/26 13:47:01;;;;;;;9.97;9.03;;;;;;;20.88;75.47;97552.28;7590406;23;20511;-67
2022/07/26 13:50:04;;;;;;;8.93;8.13;;;;;;;20.59;76.39;97546.00;7615990;23;20215;-66
2022/07/26 13:53:08;;;;;;;8.03;7.23;;;;;;;20.60;76.25;97539.63;7591701;23;20209;-67
2022/07/26 13:56:10;;;;;;;8.00;7.20;;;;;;;20.65;76.39;97549.81;7615743;23;20486;-67
2022/07/26 13:59:12;;;;;;;8.77;6.37;;;;;;;20.35;76.10;97541.00;7615067;23;20220;-68
2022/07/26 14:02:14;;;;;;;6.37;5.77;;;;;;;20.15;76.95;97559.50;7589207;23;20723;-67
2022/07/26 14:05:17;;;;;;;6.00;5.50;;;;;;;20.08;77.43;97563.91;7616744;23;20212;-67
2022/07/26 14:08:19;;;;;;;6.33;5.67;;;;;;;20.30;77.31;97563.97;7589120;23;20208;-67
2022/07/26 14:11:21;;;;;;;5.67;5.17;;;;;;;20.45;76.56;97549.59;7614687;23;20216;-67
2022/07/26 14:14:23;;;;;;;5.20;4.80;;;;;;;20.50;76.40;97555.19;7615571;23;20212;-67
2022/07/26 14:17:25;;;;;;;5.63;4.90;;;;;;;20.49;76.53;97566.94;7590288;23;20589;-67
2022/07/26 14:20:27;;;;;;;5.13;4.60;;;;;;;20.49;76.60;97563.41;7589348;23;20208;-67
2022/07/26 14:23:30;;;;;;;5.90;5.30;;;;;;;20.51;76.74;97572.94;7614533;23;20255;-67
2022/07/26 14:26:32;;;;;;;4.80;4.40;;;;;;;20.43;76.87;97570.38;7615853;23;20232;-69
2022/07/26 14:29:34;;;;;;;5.07;4.67;;;;;;;20.37;77.14;97568.44;7589261;23;20232;-68
2022/07/26 14:32:36;;;;;;;5.30;4.80;;;;;;;20.31;77.07;97549.56;7616674;23;20584;-67
2022/07/26 14:35:40;;;;;;;5.10;4.53;;;;;;;20.26;76.92;97558.19;7615239;23;20212;-68
2022/07/26 14:38:43;;;;;;;5.93;5.40;;;;;;;20.08;77.64;97555.88;7590366;23;20220;-67
2022/07/26 14:41:46;;;;;;;6.27;5.67;;;;;;;20.05;78.43;97558.09;7615828;23;20280;-67
2022/07/26 14:44:48;;;;;;;5.83;5.40;;;;;;;20.07;78.62;97564.91;7614986;23;20212;-68
2022/07/26 14:47:50;;;;;;;6.03;5.63;;;;;;;20.11;78.62;97560.03;7615360;23;20212;-67
2022/07/26 14:50:52;;;;;;;6.37;5.77;;;;;;;20.09;78.82;97549.50;7615399;23;20215;-68
2022/07/26 14:54:14;;;;;;;7.50;6.27;;;;;;;20.02;79.43;97574.53;7614710;23;20756;-67
2022/07/26 14:57:17;;;;;;;6.83;6.13;;;;;;;19.96;79.64;97569.94;7615210;23;20256;-67
2022/07/26 15:00:19;;;;;;;6.83;6.13;;;;;;;19.94;80.11;97578.16;7614414;23;20629;-67
2022/07/26 15:03:22;;;;;;;6.93;6.23;;;;;;;19.89;80.69;97580.53;7614962;23;20248;-68
2022/07/26 15:06:24;;;;;;;7.30;6.60;;;;;;;19.86;80.97;97587.09;7613982;23;20239;-67
2022/07/26 15:09:26;;;;;;;7.30;6.23;;;;;;;19.83;81.24;97611.56;7615069;23;20283;-68
2022/07/26 15:12:28;;;;;;;7.23;6.57;;;;;;;19.68;81.77;97613.38;7612898;23;20286;-68
2022/07/26 15:15:30;;;;;;;7.30;6.53;;;;;;;19.68;82.00;97600.00;7615822;23;20280;-67
2022/07/26 15:18:33;;;;;;;7.37;6.67;;;;;;;19.69;82.02;97603.50;7588666;23;20232;-67
2022/07/26 15:21:35;;;;;;;7.90;7.10;;;;;;;19.67;82.67;97595.66;7615375;23;20221;-67
2022/07/26 15:24:37;;;;;;;8.50;7.67;;;;;;;19.67;83.00;97590.28;7616186;23;20287;-67
2022/07/26 15:27:40;;;;;;;8.43;7.33;;;;;;;19.70;83.02;97589.94;7614995;23;20233;-67
2022/07/26 15:30:43;;;;;;;7.60;6.93;;;;;;;19.75;82.59;97594.75;7614791;23;20683;-67
2022/07/26 15:33:45;;;;;;;9.17;8.27;;;;;;;19.79;82.63;97586.16;7614616;23;20272;-67
2022/07/26 15:36:47;;;;;;;8.93;8.07;;;;;;;19.87;82.37;97582.56;7614613;23;20225;-68
2022/07/26 15:39:49;;;;;;;8.40;7.70;;;;;;;19.94;82.22;97567.44;7614718;23;20689;-67
2022/07/26 15:42:53;;;;;;;8.37;7.57;;;;;;;19.95;81.80;97576.31;7613764;23;20287;-67
2022/07/26 15:45:56;;;;;;;9.00;8.17;;;;;;;19.97;81.65;97564.38;7615015;23;20209;-67
2022/07/26 15:49:00;;;;;;;8.27;7.50;;;;;;;19.99;81.55;97559.66;7614721;23;20614;-67
2022/07/26 15:52:04;;;;;;;8.47;7.67;;;;;;;19.99;81.81;97556.97;7588368;23;20219;-67
2022/07/26 15:55:08;;;;;;;8.57;7.63;;;;;;;19.95;81.34;97550.34;7589330;23;20216;-67
2022/07/26 15:58:11;;;;;;;8.67;7.97;;;;;;;19.93;81.32;97551.53;7614313;23;20355;-67
2022/07/26 16:01:14;;;;;;;9.73;8.87;;;;;;;19.81;81.15;97552.00;7614244;23;20204;-67
2022/07/26 16:04:16;;;;;;;9.27;8.47;;;;;;;19.67;81.64;97552.81;7614980;23;20240;-67
2022/07/26 16:07:18;;;;;;;9.03;8.13;;;;;;;19.57;81.97;97548.72;7614880;23;20236;-67
2022/07/26 16:10:20;;;;;;;9.33;8.53;;;;;;;19.61;82.02;97542.00;7614941;23;20208;-68
2022/07/26 16:13:22;;;;;;;9.30;8.50;;;;;;;19.68;82.03;97526.88;7613507;23;20209;-68
2022/07/26 16:16:24;;;;;;;8.83;8.13;;;;;;;19.72;81.70;97526.31;7616426;23;20715;-67
2022/07/26 16:19:26;;;;;;;8.67;7.87;;;;;;;19.71;81.32;97521.97;7614147;23;20212;-67
2022/07/26 16:22:30;;;;;;;9.40;8.50;;;;;;;19.69;81.34;97526.69;7588860;23;20274;-67
2022/07/26 16:25:32;;;;;;;10.03;9.03;;;;;;;19.66;81.02;97521.72;7614219;23;20231;-68
2022/07/26 16:28:34;;;;;;;10.43;9.53;;;;;;;19.62;81.13;97509.69;7613801;23;20688;-69
2022/07/26 16:31:37;;;;;;;12.30;11.23;;;;;;;19.43;81.58;97523.59;7614010;23;20204;-70
2022/07/26 16:34:39;;;;;;;13.13;11.93;;;;;;;19.31;82.31;97514.34;7590272;23;20215;-70
2022/07/26 16:37:41;;;;;;;12.17;11.17;;;;;;;19.40;82.54;97502.53;7588266;23;20212;-71
2022/07/26 16:40:43;;;;;;;12.80;11.70;;;;;;;19.60;82.00;97506.38;7590600;23;20259;-71
2022/07/26 16:43:46;;;;;;;13.13;11.87;;;;;;;19.90;81.44;97515.22;7617303;23;20212;-70
2022/07/26 16:46:48;;;;;;;11.17;10.17;;;;;;;20.26;81.13;97505.38;7616100;23;20299;-67
2022/07/26 16:49:50;;;;;;;11.43;10.33;;;;;;;20.46;79.97;97513.69;7616599;23;20218;-66
2022/07/26 16:52:52;;;;;;;12.03;10.73;;;;;;;20.33;80.30;97510.84;7591528;23;20635;-68
2022/07/26 16:55:54;;;;;;;11.90;10.87;;;;;;;20.08;80.99;97509.47;7615568;23;20216;-68
2022/07/26 16:58:56;;;;;;;11.47;10.50;;;;;;;19.90;82.13;97513.38;7590111;23;20239;-67
2022/07/26 17:01:59;;;;;;;10.93;10.03;;;;;;;19.75;82.95;97501.88;7618388;23;20219;-67
2022/07/26 17:05:06;;;;;;;11.37;10.20;;;;;;;19.63;83.32;97497.16;7617116;23;20219;-65
2022/07/26 17:08:08;;;;;;;11.70;10.70;;;;;;;19.50;83.56;97493.25;7616249;23;20204;-67
2022/07/26 17:11:10;;;;;;;12.20;11.10;;;;;;;19.27;84.22;97497.81;7615825;23;20544;-66
2022/07/26 17:14:14;;;;;;;12.27;11.17;;;;;;;19.03;84.95;97490.84;7590199;23;20212;-66
2022/07/26 17:17:17;;;;;;;10.87;9.97;;;;;;;18.87;85.50;97490.97;7589457;23;20236;-66
2022/07/26 17:20:21;;;;;;;10.37;9.47;;;;;;;18.76;85.85;97499.44;7589090;23;20219;-64
2022/07/26 17:23:23;;;;;;;10.53;9.43;;;;;;;18.67;86.18;97505.84;7592410;23;20216;-67
2022/07/26 17:26:29;;;;;;;10.40;9.13;;;;;;;18.56;86.60;97515.09;7591622;23;20633;-64
2022/07/26 17:29:32;;;;;;;9.30;8.50;;;;;;;18.48;86.97;97514.28;7591439;23;20645;-67
2022/07/26 17:32:36;;;;;;;8.23;7.53;;;;;;;18.36;87.15;97516.56;7591594;23;20266;-67
2022/07/26 17:35:40;;;;;;;8.27;7.57;;;;;;;18.26;87.51;97511.44;7592497;23;20216;-67
2022/07/26 17:38:42;;;;;;;7.97;7.37;;;;;;;18.21;87.52;97515.63;7566240;23;20621;-67
2022/07/26 17:41:47;;;;;;;7.87;7.03;;;;;;;18.16;87.59;97508.16;7615096;23;20227;-64
2022/07/26 17:44:50;;;;;;;6.97;6.33;;;;;;;18.16;87.46;97512.66;7615663;23;20628;-67
2022/07/26 17:47:52;;;;;;;6.00;5.50;;;;;;;18.17;87.51;97514.31;7615002;23;20290;-67
2022/07/26 17:50:54;;;;;;;6.67;6.03;;;;;;;18.16;87.47;97512.66;7589251;23;20216;-66
2022/07/26 17:53:56;;;;;;;8.57;7.87;;;;;;;18.14;87.47;97509.31;7615590;23;20208;-66
2022/07/26 17:56:59;;;;;;;9.73;8.83;;;;;;;18.11;87.50;97509.66;7589767;23;20228;-67
2022/07/26 18:00:01;;;;;;;9.07;7.40;;;;;;;18.03;87.63;97510.53;7615938;23;20217;-67
2022/07/26 18:03:07;;;;;;;6.90;6.20;;;;;;;17.94;87.71;97515.09;7614829;23;20413;-66
2022/07/26 18:06:09;;;;;;;6.00;5.50;;;;;;;17.85;87.63;97515.28;7615850;23;20180;-67
2022/07/26 18:09:12;;;;;;;6.30;5.70;;;;;;;17.79;88.07;97516.81;7613826;23;20180;-67
2022/07/26 18:12:15;;;;;;;6.00;5.50;;;;;;;17.74;88.25;97513.81;7589197;23;20181;-66
2022/07/26 18:15:17;;;;;;;8.63;6.03;;;;;;;17.69;88.48;97530.34;7615647;23;20639;-66
2022/07/26 18:18:19;;;;;;;7.50;6.00;;;;;;;17.67;88.87;97523.50;7615411;23;20180;-66
2022/07/26 18:21:21;;;;;;;6.73;6.10;;;;;;;17.66;88.90;97532.53;7615499;23;20220;-67
2022/07/26 18:24:23;;;;;;;8.47;6.03;;;;;;;17.63;89.13;97522.19;7589758;23;20294;-67
2022/07/26 18:27:26;;;;;;;6.57;6.07;;;;;;;17.58;89.12;97524.50;7615561;23;20215;-68
2022/07/26 18:30:30;;;;;;;6.80;6.13;;;;;;;17.53;89.41;97525.03;7589872;23;20204;-66
2022/07/26 18:33:32;;;;;;;6.53;5.93;;;;;;;17.48;89.29;97532.69;7587671;23;20282;-67
2022/07/26 18:36:34;;;;;;;5.93;5.43;;;;;;;17.46;89.29;97528.56;7616306;23;20609;-67
2022/07/26 18:39:36;;;;;;;6.97;6.30;;;;;;;17.41;89.83;97523.72;7616061;23;20299;-68
2022/07/26 18:42:38;;;;;;;7.33;6.17;;;;;;;17.41;89.75;97515.72;7616102;23;20208;-67
2022/07/26 18:45:40;;;;;;;6.93;5.87;;;;;;;17.45;89.79;97530.38;7591712;23;20220;-67
2022/07/26 18:48:42;;;;;;;7.90;7.07;;;;;;;17.35;89.94;97532.41;7615332;23;20758;-68
2022/07/26 18:51:45;;;;;;;6.63;6.13;;;;;;;17.28;90.29;97537.56;7590499;23;20683;-67
2022/07/26 18:54:49;;;;;;;6.97;6.33;;;;;;;17.19;90.23;97538.56;7589704;23;20611;-67
2022/07/26 18:57:52;;;;;;;7.73;6.93;;;;;;;17.13;90.37;97538.44;7590666;23;20215;-66
2022/07/26 19:00:55;;;;;;;6.87;6.27;;;;;;;17.06;90.55;97538.28;7615117;23;20232;-68
2022/07/26 19:03:57;;;;;;;8.50;6.60;;;;;;;17.05;90.65;97547.25;7589621;23;20208;-67
2022/07/26 19:07:03;;;;;;;7.57;6.87;;;;;;;17.02;90.85;97550.25;7589146;23;20547;-67
2022/07/26 19:10:07;;;;;;;7.47;6.77;;;;;;;16.98;91.10;97559.56;7588715;23;20546;-68
2022/07/26 19:13:09;;;;;;;7.63;6.63;;;;;;;16.93;90.99;97562.75;7616404;23;20235;-67
2022/07/26 19:16:12;;;;;;;6.63;5.97;;;;;;;16.89;91.35;97557.91;7589596;23;20213;-67
2022/07/26 19:19:14;;;;;;;9.37;7.23;;;;;;;16.83;91.25;97559.41;7565021;23;20274;-67
2022/07/26 19:22:17;;;;;;;6.97;6.47;;;;;;;16.72;91.27;97554.41;7589411;23;20235;-67
2022/07/26 19:25:19;;;;;;;6.50;5.93;;;;;;;16.66;91.23;97547.06;7589044;23;20702;-66
2022/07/26 19:28:21;;;;;;;7.30;6.43;;;;;;;16.67;91.71;97566.56;7591148;23;20295;-67
2022/07/26 19:31:23;;;;;;;7.40;5.97;;;;;;;16.66;91.86;97557.75;7590116;23;20212;-69
2022/07/26 19:34:25;;;;;;;6.33;5.73;;;;;;;16.63;91.62;97560.72;7589812;23;20224;-69
2022/07/26 19:37:27;;;;;;;7.30;5.97;;;;;;;16.61;91.69;97557.34;7614876;23;20226;-68
2022/07/26 19:40:29;;;;;;;8.23;7.53;;;;;;;16.54;91.80;97562.50;7588006;23;20243;-68
2022/07/26 19:43:31;;;;;;;8.10;7.33;;;;;;;16.57;91.80;97561.31;7618831;23;20223;-68
2022/07/26 19:46:33;;;;;;;9.43;6.50;;;;;;;16.57;91.96;97561.31;7588891;23;20212;-67
2022/07/26 19:49:36;;;;;;;7.63;6.97;;;;;;;16.54;91.89;97569.66;7614741;23;20544;-67
2022/07/26 19:52:38;;;;;;;7.37;6.77;;;;;;;16.48;91.85;97567.63;7589848;23;20212;-67
2022/07/26 19:55:41;;;;;;;8.53;7.70;;;;;;;16.45;91.97;97566.16;7617668;23;20212;-68
2022/07/26 19:58:44;;;;;;;6.57;5.97;;;;;;;16.39;92.08;97560.63;7622833;23;20669;-68
2022/07/26 20:01:48;;;;;;;6.50;5.87;;;;;;;16.37;92.33;97566.09;7615889;23;20274;-67
2022/07/26 20:04:51;;;;;;;6.47;5.73;;;;;;;16.38;92.47;97558.94;7590284;23;20215;-69
2022/07/26 20:07:53;;;;;;;6.67;5.40;;;;;;;16.35;92.32;97561.97;7614810;23;20208;-70
2022/07/26 20:10:55;;;;;;;6.27;5.70;;;;;;;16.36;92.83;97558.31;7614597;23;20216;-71
2022/07/26 20:13:57;;;;;;;8.53;6.37;;;;;;;16.33;92.94;97567.44;7615056;23;20212;-70
2022/07/26 20:17:05;;;;;;;6.83;6.27;;;;;;;16.32;92.46;97568.44;7614590;23;20212;-70
2022/07/26 20:20:16;;;;;;;7.33;6.00;;;;;;;16.32;92.61;97559.59;7614558;23;20217;-70
2022/07/26 20:23:19;;;;;;;7.83;6.30;;;;;;;16.30;92.74;97564.25;7614018;23;20335;-70
2022/07/26 20:26:21;;;;;;;5.93;5.40;;;;;;;16.29;92.68;97562.59;7615015;23;20795;-70
2022/07/26 20:29:23;;;;;;;7.17;5.60;;;;;;;16.26;92.78;97565.59;7615730;23;20306;-70
2022/07/26 20:32:26;;;;;;;5.90;5.33;;;;;;;16.23;92.88;97566.75;7565257;23;20287;-70
2022/07/26 20:35:28;;;;;;;6.77;5.57;;;;;;;16.18;93.09;97575.19;7589978;23;20751;-70
2022/07/26 20:38:30;;;;;;;6.17;5.67;;;;;;;16.19;93.37;97566.22;7614077;23;20293;-70
2022/07/26 20:41:32;;;;;;;6.47;5.87;;;;;;;16.21;93.43;97561.56;7615945;23;20208;-70
2022/07/26 20:44:35;;;;;;;7.73;6.97;;;;;;;16.29;93.31;97559.91;7615605;23;20291;-70
2022/07/26 20:47:40;;;;;;;6.13;5.37;;;;;;;16.28;93.21;97559.09;7588522;23;20578;-70
2022/07/26 20:50:42;;;;;;;5.67;5.13;;;;;;;16.35;93.41;97567.28;7588385;23;20216;-70
2022/07/26 20:53:44;;;;;;;5.00;4.50;;;;;;;16.38;93.07;97561.63;7588708;23;20208;-71
2022/07/26 20:56:47;;;;;;;5.43;4.97;;;;;;;16.40;93.32;97562.28;7614572;23;20547;-70